Terminal Aerodrome Forecast
Issued by NWS Blacksburg, VA

Home | Current Version | Previous Version | Text Only | Print | Product List | Glossary On
Versions: 1 2 3 4 5 6 7 8 9 10 11 12 13 14 15 16 17
000
FTUS41 KRNK 081734
TAFBLF
TAF
KBLF 081734Z 0818/0918 29012G22KT P6SM SCT025 OVC050
     FM090500 29012G22KT P6SM BKN025
     FM090700 29010KT P6SM -SHSN OVC015
      TEMPO 0907/0911 4SM -SHSN OVC008
     FM091200 30010KT P6SM OVC025=

USA.gov is the U.S. government's official web portal to all federal, state and local government web resources and services.